NCAR-RAP Real-Time Weather Data

Output produced by METARs form (19 November 2017  19:36 UTC)
found at http://weather.rap.ucar.edu/surface/
 
Conditions at: KALB observed 19 November 2017  19:31 UTC
Temperature: 3.3°C (38°F)
Dewpoint: -2.8°C (27°F) [RH = 64%]
Pressure (altimeter): 29.54 inches Hg (1000.4 mb)
Winds: from the W (280 degrees) at 22 MPH (19 knots; 9.9 m/s)
gusting to 31 MPH (27 knots; 14.0 m/s)
Visibility: 10 or more miles (16+ km)
Ceiling: 2800 feet AGL
Clouds: broken clouds at 2800 feet AGL
overcast cloud deck at 3500 feet AGL
Present Weather: no significant weather observed at this time
KALB 191931Z 28019G27KT 10SM BKN028 OVC035 03/M03 A2954 RMK AO2 PK WND 28033/1901 BKN V SCT BINOVC T00331028

Conditions at: KALB observed 19 November 2017  18:51 UTC
Temperature: 3.9°C (39°F)
Dewpoint: -2.8°C (27°F) [RH = 62%]
Pressure (altimeter): 29.51 inches Hg (999.4 mb)
[Sea-level pressure: 999.5 mb]
Winds: from the W (280 degrees) at 25 MPH (22 knots; 11.4 m/s)
gusting to 37 MPH (32 knots; 16.6 m/s)
Visibility: 10 or more miles (16+ km)
Ceiling: 3300 feet AGL
Clouds: few clouds at 2900 feet AGL
broken clouds at 3300 feet AGL
Present Weather: no significant weather observed at this time
KALB 191851Z 28022G32KT 10SM FEW029 BKN033 04/M03 A2951 RMK AO2 PK WND 28036/1757 SLP995 T00391028

Conditions at: KALB observed 19 November 2017  17:51 UTC
Temperature: 4.4°C (40°F)
Dewpoint: -3.9°C (25°F) [RH = 55%]
Pressure (altimeter): 29.46 inches Hg (997.7 mb)
[Sea-level pressure: 997.9 mb]
Winds: from the W (280 degrees) at 26 MPH (23 knots; 12.0 m/s)
gusting to 40 MPH (35 knots; 18.2 m/s)
Visibility: 10 or more miles (16+ km)
Ceiling: 3500 feet AGL
Clouds: broken clouds at 3500 feet AGL
Present Weather: no significant weather observed at this time
KALB 191751Z 28023G35KT 10SM BKN035 04/M04 A2946 RMK AO2 PK WND 29038/1739 SLP979 60003 T00441039 10111 20039 51044

Conditions at: KALB observed 19 November 2017  16:51 UTC
Temperature: 4.4°C (40°F)
Dewpoint: -3.3°C (26°F) [RH = 57%]
Pressure (altimeter): 29.45 inches Hg (997.4 mb)
[Sea-level pressure: 997.4 mb]
Winds: from the WNW (290 degrees) at 32 MPH (28 knots; 14.6 m/s)
gusting to 41 MPH (36 knots; 18.7 m/s)
Visibility: 10 or more miles (16+ km)
Ceiling: 3500 feet AGL
Clouds: broken clouds at 3500 feet AGL
broken clouds at 4600 feet AGL
overcast cloud deck at 15000 feet AGL
Present Weather: no significant weather observed at this time
KALB 191651Z 29028G36KT 10SM BKN035 BKN046 OVC150 04/M03 A2945 RMK AO2 PK WND 27040/1557 SLP974 BINOVC T00441033

Conditions at: KALB observed 19 November 2017  15:51 UTC
Temperature: 4.4°C (40°F)
Dewpoint: -2.2°C (28°F) [RH = 62%]
Pressure (altimeter): 29.39 inches Hg (995.3 mb)
[Sea-level pressure: 995.2 mb]
Winds: from the WNW (290 degrees) at 30 MPH (26 knots; 13.5 m/s)
gusting to 45 MPH (39 knots; 20.3 m/s)
Visibility: 10 or more miles (16+ km)
Ceiling: 3300 feet AGL
Clouds: broken clouds at 3300 feet AGL
broken clouds at 12000 feet AGL
overcast cloud deck at 15000 feet AGL
Present Weather: no significant weather observed at this time
KALB 191551Z 29026G39KT 10SM BKN033 BKN120 OVC150 04/M02 A2939 RMK AO2 PK WND 27046/1526 SLP952 OCNL BINOVC T00441022

Conditions at: KALB observed 19 November 2017  14:51 UTC
Temperature: 5.0°C (41°F)
Dewpoint: -1.7°C (29°F) [RH = 62%]
Pressure (altimeter): 29.33 inches Hg (993.3 mb)
[Sea-level pressure: 993.5 mb]
Winds: from the W (280 degrees) at 25 MPH (22 knots; 11.4 m/s)
gusting to 44 MPH (38 knots; 19.8 m/s)
Visibility: 10 or more miles (16+ km)
Ceiling: 10000 feet AGL
Clouds: scattered clouds at 3100 feet AGL
broken clouds at 10000 feet AGL
overcast cloud deck at 15000 feet AGL
Present Weather: no significant weather observed at this time
KALB 191451Z COR 28022G38KT 10SM SCT031 BKN100 OVC150 05/M02 A2933 RMK AO2 PK WND 29048/1406 SLP935 SCT V BKN BINOVC 60005 T00501017 53079

Conditions at: KALB observed 19 November 2017  13:51 UTC
Temperature: 6.1°C (43°F)
Dewpoint: 0.0°C (32°F) [RH = 65%]
Pressure (altimeter): 29.23 inches Hg (989.9 mb)
[Sea-level pressure: 990.1 mb]
Winds: from the W (280 degrees) at 29 MPH (25 knots; 13.0 m/s)
gusting to 56 MPH (49 knots; 25.5 m/s)
Visibility: 10 or more miles (16+ km)
Ceiling: 6000 feet AGL
Clouds: few clouds at 2800 feet AGL
broken clouds at 6000 feet AGL
overcast cloud deck at 7500 feet AGL
Present Weather:
SOME DATA ABOVE MAY BE INACCURATE!!!
"$" is an indication the sensor requires maintenance
KALB 191351Z COR 28025G49KT 10SM FEW028 BKN060 OVC075 06/00 A2923 RMK AO2 PK WND 28049/1349 RAE11 SLP901 VCSH SW-NW BINOVC T00610000 PNO $

Conditions at: KALB observed 19 November 2017  12:56 UTC
Temperature: 7.8°C (46°F)
Dewpoint: 4.4°C (40°F) [RH = 79%]
Pressure (altimeter): 29.18 inches Hg (988.2 mb)
Winds: from the WNW (290 degrees) at 28 MPH (24 knots; 12.5 m/s)
gusting to 41 MPH (36 knots; 18.7 m/s)
Visibility: 3 miles (5 km)
Ceiling: 3400 feet AGL
Clouds: few clouds at 800 feet AGL
broken clouds at 3400 feet AGL
overcast cloud deck at 6000 feet AGL
Present Weather: -RA BR  (light rain, mist)
KALB 191256Z COR 29024G36KT 3SM -RA BR FEW008 BKN034 OVC060 08/04 A2918 RMK AO2 PK WND 28036/1253 WSHFT 1238 PRESRR T00780044

Conditions at: KALB observed 19 November 2017  12:51 UTC
Temperature: 8.9°C (48°F)
Dewpoint: 5.6°C (42°F) [RH = 80%]
Pressure (altimeter): 29.17 inches Hg (987.9 mb)
[Sea-level pressure: 988.0 mb]
Winds: from the W (280 degrees) at 31 MPH (27 knots; 14.0 m/s)
gusting to 45 MPH (39 knots; 20.3 m/s)
Visibility: 2.50 miles (4.02 km)
Ceiling: 3400 feet AGL
Clouds: scattered clouds at 800 feet AGL
broken clouds at 3400 feet AGL
overcast cloud deck at 5500 feet AGL
Present Weather: -RA SQ  (light rain, squal)
KALB 191251Z 28027G39KT 2 1/2SM -RA SQ SCT008 BKN034 OVC055 09/06 A2917 RMK AO2 PK WND 26039/1245 WSHFT 1235 TWR VIS 3 RAB35 SLP880 FROPA P0003 T00890056

Conditions at: KALB observed 19 November 2017  12:49 UTC
Temperature: 9.0°C (48°F)
Dewpoint: 7.0°C (45°F) [RH = 87%]
Pressure (altimeter): 29.17 inches Hg (987.9 mb)
Winds: from the W (280 degrees) at 30 MPH (26 knots; 13.5 m/s)
gusting to 45 MPH (39 knots; 20.3 m/s)
Visibility: 2.00 miles (3.22 km)
Ceiling: 3400 feet AGL
Clouds: scattered clouds at 800 feet AGL
broken clouds at 3400 feet AGL
overcast cloud deck at 5500 feet AGL
Present Weather: -RA SQ  (light rain, squal)
KALB 191249Z 28026G39KT 2SM -RA SQ SCT008 BKN034 OVC055 09/07 A2917 RMK AO2 PK WND 26039/1245 WSHFT 1235 TWR VIS 3 RAB35 PRESRR FROPA P0003

Conditions at: KALB observed 19 November 2017  12:35 UTC
Temperature: 10.6°C (51°F)
Dewpoint: 8.9°C (48°F) [RH = 89%]
Pressure (altimeter): 29.11 inches Hg (985.9 mb)
Winds: from the SSW (200 degrees) at 15 MPH (13 knots; 6.8 m/s)
Visibility: 7 miles (11 km)
Ceiling: 4500 feet AGL
Clouds: scattered clouds at 800 feet AGL
broken clouds at 4500 feet AGL
overcast cloud deck at 6500 feet AGL
Present Weather: -RA  (light rain)
KALB 191235Z COR 20013KT 7SM -RA SCT008 BKN045 OVC065 11/09 A2911 RMK AO2 RAB35 P0000 T01060089

Conditions at: KALB observed 19 November 2017  11:51 UTC
Temperature: 10.6°C (51°F)
Dewpoint: 8.3°C (47°F) [RH = 86%]
Pressure (altimeter): 29.10 inches Hg (985.5 mb)
[Sea-level pressure: 985.4 mb]
Winds: from the S (180 degrees) at 17 MPH (15 knots; 7.8 m/s)
gusting to 26 MPH (23 knots; 12.0 m/s)
Visibility: 10 or more miles (16+ km)
Ceiling: 900 feet AGL
Clouds: broken clouds at 900 feet AGL
broken clouds at 1200 feet AGL
broken clouds at 11000 feet AGL
broken clouds at 15000 feet AGL
Present Weather: no significant weather observed at this time
KALB 191151Z 18015G23KT 10SM BKN009 BKN012 BKN110 BKN150 OVC250 11/08 A2910 RMK AO2 PK WND 17029/1056 SLP854 SHRA DSNT ALQDS 60010 70020 T01060083 10106 20078 56011

Conditions at: KALB observed 19 November 2017  11:47 UTC
Temperature: 11.0°C (52°F)
Dewpoint: 8.0°C (46°F) [RH = 82%]
Pressure (altimeter): 29.10 inches Hg (985.5 mb)
Winds: from the S (180 degrees) at 18 MPH (16 knots; 8.3 m/s)
gusting to 25 MPH (22 knots; 11.4 m/s)
Visibility: 10 or more miles (16+ km)
Ceiling: 900 feet AGL
Clouds: broken clouds at 900 feet AGL
broken clouds at 1200 feet AGL
broken clouds at 11000 feet AGL
broken clouds at 15000 feet AGL
Present Weather: no significant weather observed at this time
KALB 191147Z 18016G22KT 10SM BKN009 BKN012 BKN110 BKN150 OVC250 11/08 A2910 RMK AO2 PK WND 17029/1056 SHRA DSNT ALQDS

Conditions at: KALB observed 19 November 2017  11:24 UTC
Temperature: 10.6°C (51°F)
Dewpoint: 8.3°C (47°F) [RH = 86%]
Pressure (altimeter): 29.09 inches Hg (985.2 mb)
Winds: from the S (170 degrees) at 17 MPH (15 knots; 7.8 m/s)
gusting to 25 MPH (22 knots; 11.4 m/s)
Visibility: 10 or more miles (16+ km)
Ceiling: 11000 feet AGL
Clouds: few clouds at 900 feet AGL
scattered clouds at 1200 feet AGL
broken clouds at 11000 feet AGL
broken clouds at 15000 feet AGL
Present Weather: no significant weather observed at this time
KALB 191124Z 17015G22KT 10SM FEW009 SCT012 BKN110 BKN150 OVC250 11/08 A2909 RMK AO2 PK WND 17029/1056 PRESENT WX VCSH BINOVC T01060083

Conditions at: KALB observed 19 November 2017  10:51 UTC
Temperature: 10.6°C (51°F)
Dewpoint: 8.3°C (47°F) [RH = 86%]
Pressure (altimeter): 29.10 inches Hg (985.5 mb)
[Sea-level pressure: 985.5 mb]
Winds: from the S (170 degrees) at 16 MPH (14 knots; 7.3 m/s)
gusting to 30 MPH (26 knots; 13.5 m/s)
Visibility: 10 or more miles (16+ km)
Ceiling: 1200 feet AGL
Clouds: scattered clouds at 900 feet AGL
broken clouds at 1200 feet AGL
overcast cloud deck at 4800 feet AGL
Present Weather: no significant weather observed at this time
KALB 191051Z 17014G26KT 10SM SCT009 BKN012 OVC048 11/08 A2910 RMK AO2 PK WND 17026/1049 RAE18DZB18E32 SLP855 PRESENT WX VCSH P0000 T01060083

Conditions at: KALB observed 19 November 2017  10:40 UTC
Temperature: 10.6°C (51°F)
Dewpoint: 8.3°C (47°F) [RH = 86%]
Pressure (altimeter): 29.11 inches Hg (985.9 mb)
Winds: from the S (170 degrees) at 16 MPH (14 knots; 7.3 m/s)
gusting to 26 MPH (23 knots; 12.0 m/s)
Visibility: 10 or more miles (16+ km)
Ceiling: 1200 feet AGL
Clouds: scattered clouds at 900 feet AGL
broken clouds at 1200 feet AGL
overcast cloud deck at 4800 feet AGL
Present Weather: no significant weather observed at this time
KALB 191040Z 17014G23KT 10SM SCT009 BKN012 OVC048 11/08 A2911 RMK AO2 RAE18DZB18E32 PRESENT WX VCSH P0000 T01060083

Conditions at: KALB observed 19 November 2017  09:51 UTC
Temperature: 10.0°C (50°F)
Dewpoint: 7.8°C (46°F) [RH = 86%]
Pressure (altimeter): 29.13 inches Hg (986.5 mb)
[Sea-level pressure: 986.5 mb]
Winds: from the S (170 degrees) at 18 MPH (16 knots; 8.3 m/s)
gusting to 32 MPH (28 knots; 14.6 m/s)
Visibility: 10 or more miles (16+ km)
Ceiling: 900 feet AGL
Clouds: broken clouds at 900 feet AGL
broken clouds at 1200 feet AGL
broken clouds at 11000 feet AGL
overcast cloud deck at 14000 feet AGL
Present Weather: -RA  (light rain)
KALB 190951Z 17016G28KT 10SM -RA BKN009 BKN012 BKN110 OVC140 10/08 A2913 RMK AO2 PK WND 17028/0946 RAE11B51DZB11E17 SLP865 PCPN VRY LGT P0000 T01000078

Conditions at: KALB observed 19 November 2017  09:17 UTC
Temperature: 9.4°C (49°F)
Dewpoint: 7.2°C (45°F) [RH = 86%]
Pressure (altimeter): 29.14 inches Hg (986.9 mb)
Winds: from the S (180 degrees) at 21 MPH (18 knots; 9.4 m/s)
gusting to 30 MPH (26 knots; 13.5 m/s)
Visibility: 10 or more miles (16+ km)
Ceiling: 900 feet AGL
Clouds: broken clouds at 900 feet AGL
broken clouds at 1200 feet AGL
broken clouds at 11000 feet AGL
overcast cloud deck at 14000 feet AGL
Present Weather: no significant weather observed at this time
KALB 190917Z 18018G26KT 10SM BKN009 BKN012 BKN110 OVC140 09/07 A2914 RMK AO2 PK WND 16026/0910 RAE11DZB11E17 P0000 T00940072

Conditions at: KALB observed 19 November 2017  08:51 UTC
Temperature: 9.4°C (49°F)
Dewpoint: 7.2°C (45°F) [RH = 86%]
Pressure (altimeter): 29.15 inches Hg (987.2 mb)
[Sea-level pressure: 987.3 mb]
Winds: from the S (170 degrees) at 18 MPH (16 knots; 8.3 m/s)
gusting to 29 MPH (25 knots; 13.0 m/s)
Visibility: 10 or more miles (16+ km)
Ceiling: 1200 feet AGL
Clouds: few clouds at 600 feet AGL
broken clouds at 1200 feet AGL
broken clouds at 11000 feet AGL
overcast cloud deck at 14000 feet AGL
Present Weather: -RA  (light rain)
KALB 190851Z 17016G25KT 10SM -RA FEW006 BKN012 BKN110 OVC140 09/07 A2915 RMK AO2 RAE0757B48DZB0757E02 SLP873 P0000 60010 T00940072 58049

Conditions at: KALB observed 19 November 2017  08:32 UTC
Temperature: 8.9°C (48°F)
Dewpoint: 6.7°C (44°F) [RH = 86%]
Pressure (altimeter): 29.16 inches Hg (987.6 mb)
Winds: from the S (170 degrees) at 20 MPH (17 knots; 8.8 m/s)
gusting to 28 MPH (24 knots; 12.5 m/s)
Visibility: 10 or more miles (16+ km)
Ceiling: 4500 feet AGL
Clouds: scattered clouds at 600 feet AGL
scattered clouds at 1000 feet AGL
broken clouds at 4500 feet AGL
overcast cloud deck at 14000 feet AGL
Present Weather: no significant weather observed at this time
KALB 190832Z 17017G24KT 10SM SCT006 SCT010 BKN045 OVC140 09/07 A2916 RMK AO2 RAE0757DZB0757E02 VCSH W-NW P0000 T00890067

Conditions at: KALB observed 19 November 2017  07:51 UTC
Temperature: 8.9°C (48°F)
Dewpoint: 6.7°C (44°F) [RH = 86%]
Pressure (altimeter): 29.20 inches Hg (988.9 mb)
[Sea-level pressure: 989.0 mb]
Winds: from the SSW (210 degrees) at 13 MPH (11 knots; 5.7 m/s)
gusting to 25 MPH (22 knots; 11.4 m/s)
Visibility: 10 or more miles (16+ km)
Ceiling: 800 feet AGL
Clouds: overcast cloud deck at 800 feet AGL
Present Weather: -RA  (light rain)
KALB 190751Z 21011G22KT 10SM -RA OVC008 09/07 A2920 RMK AO2 RAE21B51DZB21E33 CIG 006V011 SLP890 PCPN VRY LGT P0003 T00890067